Time;durP1;ratioP1;P1;durP2;ratioP2;P2;SDS_P1;SDS_P2;PMS_P1;PMS_P2;Temp;Humidity;BMP_temperature;BMP_pressure;BME280_temperature;BME280_humidity;BME280_pressure;Samples;Min_cycle;Max_cycle;Signal;HPM_P1;HPM_P2
2022/01/29 00:00:17;;;;;;;37.08;13.68;;;;;;;3.34;69.50;99992.56;5124037;28;20046;-94
2022/01/29 00:02:43;;;;;;;43.13;13.63;;;;;;;3.04;70.65;99970.91;5123064;28;20047;-94
2022/01/29 00:05:11;;;;;;;38.63;14.32;;;;;;;2.91;72.51;100000.38;5123635;28;20035;-94
2022/01/29 00:07:42;;;;;;;44.13;14.40;;;;;;;2.52;72.97;99972.31;5124087;28;20112;-94
2022/01/29 00:10:09;;;;;;;43.08;16.17;;;;;;;2.22;74.39;99982.94;5121971;28;20074;-94
2022/01/29 00:12:35;;;;;;;44.67;16.58;;;;;;;2.13;75.24;99999.31;5123042;28;20134;-95
2022/01/29 00:15:01;;;;;;;40.35;15.15;;;;;;;1.92;76.23;99991.75;5123370;27;20078;-95
2022/01/29 00:17:27;;;;;;;41.08;16.05;;;;;;;1.72;76.30;99964.97;5122881;28;20048;-94
2022/01/29 00:19:54;;;;;;;54.17;18.27;;;;;;;1.64;76.62;99977.88;5122538;28;20104;-96
2022/01/29 00:22:21;;;;;;;52.08;20.50;;;;;;;1.61;77.22;99976.91;5122430;28;20044;-94
2022/01/29 00:24:47;;;;;;;49.40;17.95;;;;;;;1.60;76.74;99969.88;5121931;28;20047;-95
2022/01/29 00:27:13;;;;;;;48.72;19.50;;;;;;;1.54;77.02;99980.19;5122466;28;20681;-94
2022/01/29 00:29:42;;;;;;;46.13;18.23;;;;;;;1.47;78.07;99988.72;5123337;27;20047;-94
2022/01/29 00:32:09;;;;;;;49.10;20.17;;;;;;;1.12;78.80;99978.09;5122543;28;20040;-95
2022/01/29 00:34:35;;;;;;;50.80;19.98;;;;;;;1.09;79.37;99981.50;5135228;27;20100;-94
2022/01/29 00:37:01;;;;;;;48.15;18.35;;;;;;;1.24;79.62;100007.28;5143584;27;20434;-94
2022/01/29 00:39:29;;;;;;;44.75;18.67;;;;;;;1.08;79.72;99992.81;5142759;27;20051;-94
2022/01/29 00:41:56;;;;;;;52.88;19.52;;;;;;;1.05;79.93;99989.22;5143766;27;20043;-94
2022/01/29 00:44:25;;;;;;;51.65;18.92;;;;;;;1.01;80.46;99989.13;5142862;27;20059;-93
2022/01/29 00:46:51;;;;;;;61.65;19.90;;;;;;;1.07;80.32;100008.50;5142136;27;20071;-93
2022/01/29 00:49:19;;;;;;;56.38;19.45;;;;;;;0.87;80.89;99979.97;5143409;27;20093;-94
2022/01/29 00:51:48;;;;;;;46.50;19.48;;;;;;;1.01;81.10;100006.56;5143103;27;20039;-94
2022/01/29 00:54:17;;;;;;;51.20;18.95;;;;;;;1.03;80.55;99997.91;5142756;27;20047;-95
2022/01/29 00:56:44;;;;;;;55.80;21.95;;;;;;;0.88;81.30;99983.47;5130051;27;20087;-94
2022/01/29 00:59:12;;;;;;;57.40;20.35;;;;;;;0.82;81.36;99982.44;5132249;27;20039;-94
2022/01/29 01:01:38;;;;;;;61.60;22.10;;;;;;;0.84;81.54;99986.81;5142986;27;20069;-95
2022/01/29 01:04:04;;;;;;;46.45;20.05;;;;;;;1.05;81.80;100000.59;5143031;27;20047;-95
2022/01/29 01:06:30;;;;;;;58.97;23.42;;;;;;;1.16;80.82;99977.34;5143953;27;20431;-94
2022/01/29 01:08:56;;;;;;;52.00;22.73;;;;;;;1.31;80.26;99982.16;5143347;27;20054;-94
2022/01/29 01:11:22;;;;;;;56.42;20.05;;;;;;;1.32;80.10;99970.81;5141393;28;20047;-95
2022/01/29 01:13:50;;;;;;;48.38;18.50;;;;;;;1.47;79.78;99991.34;5143424;28;20114;-94
2022/01/29 01:16:17;;;;;;;53.78;20.42;;;;;;;1.36;80.12;99977.91;5143679;28;20092;-94
2022/01/29 01:18:43;;;;;;;57.70;21.20;;;;;;;1.25;80.40;99974.09;5143298;28;20043;-94
2022/01/29 01:21:09;;;;;;;58.90;20.65;;;;;;;1.28;81.24;100009.16;5143366;28;20067;-94
2022/01/29 01:23:34;;;;;;;55.83;21.15;;;;;;;1.28;81.24;100018.72;5142127;28;20051;-95
2022/01/29 01:26:03;;;;;;;56.00;20.77;;;;;;;1.17;80.64;99994.81;5143571;28;20067;-96
2022/01/29 01:28:29;;;;;;;55.78;22.85;;;;;;;1.29;80.37;99995.19;5142362;28;20043;-94
2022/01/29 01:30:57;;;;;;;52.08;19.55;;;;;;;1.35;80.30;100012.84;5143227;27;20058;-94
2022/01/29 01:33:22;;;;;;;49.47;21.25;;;;;;;1.41;80.15;100000.81;5144683;27;20092;-93
2022/01/29 01:35:53;;;;;;;55.47;20.33;;;;;;;1.58;79.07;100009.19;5144282;27;20043;-94
2022/01/29 01:38:27;;;;;;;58.50;21.55;;;;;;;1.55;78.65;100010.81;5126555;28;20112;-93
2022/01/29 01:41:01;;;;;;;47.75;19.90;;;;;;;1.47;78.55;100014.94;5126572;28;20381;-94
2022/01/29 01:43:29;;;;;;;54.25;21.60;;;;;;;1.45;79.07;100030.59;5126177;28;20065;-94
2022/01/29 01:45:57;;;;;;;50.30;20.45;;;;;;;1.41;79.82;100041.84;5126400;28;20058;-93
2022/01/29 01:48:24;;;;;;;45.17;18.95;;;;;;;1.40;79.79;100030.47;5126213;28;20079;-94
2022/01/29 01:50:50;;;;;;;55.78;22.38;;;;;;;1.35;79.36;99989.25;5127182;28;20047;-94
2022/01/29 01:53:19;;;;;;;51.10;19.55;;;;;;;1.36;79.40;100001.50;5126296;28;20099;-95
2022/01/29 01:55:47;;;;;;;50.45;18.58;;;;;;;1.91;74.98;99989.06;5124355;28;20047;-96
2022/01/29 01:58:13;;;;;;;43.35;18.80;;;;;;;2.26;73.74;99996.16;5124739;28;20044;-95
2022/01/29 02:00:39;;;;;;;44.17;18.13;;;;;;;2.40;71.35;99987.75;5124773;28;20531;-94
2022/01/29 02:03:08;;;;;;;43.25;15.95;;;;;;;3.07;67.78;99994.63;5123171;28;20043;-94
2022/01/29 02:05:34;;;;;;;40.45;15.30;;;;;;;3.58;65.31;100010.59;5124666;28;20489;-95
2022/01/29 02:08:02;;;;;;;38.85;15.40;;;;;;;3.50;65.70;99999.94;5121373;28;20024;-94
2022/01/29 02:10:28;;;;;;;37.38;13.68;;;;;;;3.18;68.66;100033.41;5121747;28;20097;-93
2022/01/29 02:12:59;;;;;;;36.08;13.70;;;;;;;2.90;66.94;99995.97;5120039;28;20382;-94
2022/01/29 02:15:26;;;;;;;41.05;15.77;;;;;;;3.31;64.63;99988.13;5121965;28;20097;-93
2022/01/29 02:17:52;;;;;;;39.22;15.40;;;;;;;3.65;63.61;100012.53;5121821;28;20558;-94
2022/01/29 02:20:23;;;;;;;40.80;14.90;;;;;;;3.64;62.73;99982.72;5122802;28;20047;-93
2022/01/29 02:22:53;;;;;;;35.17;13.55;;;;;;;3.41;63.55;99981.34;5123848;28;20047;-93
2022/01/29 02:25:34;;;;;;;44.63;16.17;;;;;;;3.57;63.73;100019.34;5122968;28;20039;-94
2022/01/29 02:28:02;;;;;;;44.97;14.32;;;;;;;3.52;62.86;99997.34;5123731;28;20036;-94
2022/01/29 02:30:30;;;;;;;35.47;14.35;;;;;;;3.39;64.34;100011.97;5123617;28;20042;-93
2022/01/29 02:32:57;;;;;;;43.83;14.57;;;;;;;3.44;62.98;100003.31;5123873;28;20078;-94
2022/01/29 02:35:26;;;;;;;36.53;13.43;;;;;;;3.29;63.73;99997.72;5123283;28;20497;-93
2022/01/29 02:37:58;;;;;;;38.55;12.85;;;;;;;3.47;63.30;100021.81;5123089;28;20072;-94
2022/01/29 02:40:25;;;;;;;35.53;14.15;;;;;;;3.13;65.94;100014.91;5124147;28;20044;-96
2022/01/29 02:42:53;;;;;;;37.30;14.50;;;;;;;2.41;68.71;100003.53;5124611;28;20043;-94
2022/01/29 02:45:20;;;;;;;37.00;13.93;;;;;;;2.41;67.86;100006.16;5123892;28;20054;-94
2022/01/29 02:47:46;;;;;;;33.80;12.85;;;;;;;2.50;67.85;100015.13;5124368;28;20072;-94
2022/01/29 02:50:13;;;;;;;34.38;13.02;;;;;;;2.23;69.72;100026.69;5124056;28;20115;-95
2022/01/29 02:52:39;;;;;;;38.92;13.80;;;;;;;2.00;69.10;100008.59;5123363;28;20035;-95
2022/01/29 02:55:07;;;;;;;39.70;13.13;;;;;;;1.87;71.22;100016.97;5124729;28;20054;-96
2022/01/29 02:57:33;;;;;;;39.63;14.65;;;;;;;1.72;72.78;100024.41;5124368;28;20051;-95
2022/01/29 03:00:00;;;;;;;38.95;15.85;;;;;;;1.44;73.59;100011.38;5125269;28;20051;-94
2022/01/29 03:02:27;;;;;;;41.72;15.57;;;;;;;1.13;75.29;100012.19;5125735;28;20458;-94
2022/01/29 03:04:53;;;;;;;39.15;15.15;;;;;;;0.97;76.46;100013.44;5125012;27;20043;-96
2022/01/29 03:07:19;;;;;;;37.70;14.50;;;;;;;0.91;76.67;100013.25;5124641;28;20485;-93
2022/01/29 03:09:45;;;;;;;40.17;13.73;;;;;;;0.76;77.39;100017.97;5124418;28;20047;-94
2022/01/29 03:12:19;;;;;;;43.83;16.77;;;;;;;0.72;78.52;100035.34;5123631;28;20063;-94
2022/01/29 03:14:45;;;;;;;33.35;14.10;;;;;;;0.42;79.00;100001.19;5124373;28;20059;-94
2022/01/29 03:17:11;;;;;;;41.08;15.88;;;;;;;0.32;79.78;99999.09;5125090;28;20073;-94
2022/01/29 03:19:40;;;;;;;37.97;13.23;;;;;;;0.68;79.10;100046.56;5125666;28;20055;-94
2022/01/29 03:22:06;;;;;;;37.60;13.35;;;;;;;0.35;79.75;100015.81;5142705;27;20134;-95
2022/01/29 03:24:32;;;;;;;37.15;13.93;;;;;;;0.34;79.64;100003.53;5145886;27;20067;-96
2022/01/29 03:26:58;;;;;;;35.60;13.00;;;;;;;0.51;79.09;100026.78;5128070;27;20063;-94
2022/01/29 03:29:27;;;;;;;36.03;13.50;;;;;;;1.18;75.59;100035.91;5124623;28;20040;-95
2022/01/29 03:31:53;;;;;;;35.55;13.93;;;;;;;1.54;74.42;100037.84;5122435;27;20048;-95
2022/01/29 03:34:22;;;;;;;41.38;14.35;;;;;;;1.59;73.50;100029.28;5121874;28;20044;-94
2022/01/29 03:36:49;;;;;;;37.90;12.48;;;;;;;1.30;75.20;100031.06;5129736;27;20062;-94
2022/01/29 03:39:16;;;;;;;37.83;15.85;;;;;;;0.86;76.72;100017.44;5143397;27;20082;-96
2022/01/29 03:41:42;;;;;;;38.63;15.77;;;;;;;0.68;77.41;100017.75;5143738;27;20499;-94
2022/01/29 03:44:08;;;;;;;39.30;15.50;;;;;;;0.48;78.40;100022.34;5144227;27;20047;-95
2022/01/29 03:46:36;;;;;;;44.80;17.58;;;;;;;0.30;79.57;100016.47;5144114;27;20112;-95
2022/01/29 03:49:05;;;;;;;36.72;15.18;;;;;;;0.30;79.60;100022.59;5144451;27;20050;-94
2022/01/29 03:51:32;;;;;;;43.42;15.77;;;;;;;0.41;80.65;100067.44;5144874;27;20131;-94
2022/01/29 03:53:58;;;;;;;44.35;17.20;;;;;;;0.24;80.96;100045.03;5144751;27;20047;-95
2022/01/29 03:56:24;;;;;;;39.35;16.10;;;;;;;0.16;81.18;100032.59;5143174;27;20135;-95
2022/01/29 03:58:52;;;;;;;39.95;15.45;;;;;;;0.45;80.05;100037.91;5143497;27;20074;-95
2022/01/29 04:01:18;;;;;;;40.33;16.95;;;;;;;0.64;78.28;100038.56;5142816;27;20034;-95
2022/01/29 04:03:46;;;;;;;35.35;12.70;;;;;;;1.38;73.74;100029.53;5142114;27;20039;-94
2022/01/29 04:06:12;;;;;;;36.55;13.43;;;;;;;2.34;70.58;100063.72;5139399;27;20043;-94
2022/01/29 04:08:41;;;;;;;34.92;13.07;;;;;;;2.45;69.75;100057.00;5141242;27;20468;-95
2022/01/29 04:11:07;;;;;;;;;;;;;;;2.67;68.76;100064.59;5141333;27;20055;-95
2022/01/29 04:13:33;;;;;;;35.05;13.10;;;;;;;2.93;67.19;100051.22;5124165;27;20026;-96
2022/01/29 04:15:59;;;;;;;36.25;12.70;;;;;;;2.99;66.30;100047.84;5120359;28;20396;-95
2022/01/29 04:18:27;;;;;;;34.72;12.55;;;;;;;2.87;66.58;100033.56;5120493;28;20047;-96
2022/01/29 04:20:54;;;;;;;38.92;14.05;;;;;;;2.74;67.54;100042.00;5120678;28;20497;-95
2022/01/29 04:23:20;;;;;;;37.03;13.45;;;;;;;2.79;67.90;100050.00;5120927;28;20066;-96
2022/01/29 04:25:46;;;;;;;34.70;13.27;;;;;;;2.67;67.71;100045.34;5121606;28;20044;-94
2022/01/29 04:28:14;;;;;;;34.20;14.18;;;;;;;2.68;67.52;100034.84;5120436;28;20065;-96
2022/01/29 04:30:48;;;;;;;38.25;12.55;;;;;;;2.66;68.28;100044.41;5120026;28;20047;-94
2022/01/29 04:33:27;;;;;;;42.80;13.55;;;;;;;2.71;68.46;100062.03;5118932;28;20553;-95
2022/01/29 04:36:00;;;;;;;34.53;14.45;;;;;;;2.90;67.15;100055.50;5118789;28;20078;-94
2022/01/29 04:38:27;;;;;;;37.78;13.75;;;;;;;2.87;66.83;100040.56;5119372;28;20047;-95
2022/01/29 04:40:53;;;;;;;40.58;14.18;;;;;;;2.99;66.59;100059.25;5120709;27;20050;-94
2022/01/29 04:43:19;;;;;;;37.45;13.50;;;;;;;2.90;66.21;100027.50;5139681;27;20036;-93
2022/01/29 04:45:45;;;;;;;33.97;12.43;;;;;;;2.92;67.06;100051.19;5140620;27;20065;-95
2022/01/29 04:48:13;;;;;;;37.97;14.02;;;;;;;2.73;66.94;100018.31;5141133;27;20073;-96
2022/01/29 04:50:40;;;;;;;36.90;14.68;;;;;;;2.79;67.85;100053.50;5140539;27;20047;-94
2022/01/29 04:53:08;;;;;;;37.88;12.93;;;;;;;2.58;69.08;100035.50;5140987;27;20071;-95
2022/01/29 04:55:36;;;;;;;32.05;13.52;;;;;;;2.32;69.58;100019.06;5143301;27;20055;-95
2022/01/29 04:58:03;;;;;;;34.72;12.93;;;;;;;2.11;70.77;100014.13;5142421;27;20039;-96
2022/01/29 05:00:29;;;;;;;32.53;12.10;;;;;;;2.05;71.57;100030.59;5140705;27;20130;-96
2022/01/29 05:03:05;;;;;;;28.73;11.38;;;;;;;2.00;73.07;100057.56;5142274;27;20050;-95
2022/01/29 05:05:31;;;;;;;30.08;11.98;;;;;;;1.62;73.68;100032.00;5121290;28;20051;-95
2022/01/29 05:07:57;;;;;;;34.05;13.70;;;;;;;1.28;74.91;100022.25;5119765;28;20054;-95
2022/01/29 05:10:24;;;;;;;40.42;13.45;;;;;;;1.12;75.62;100026.13;5120068;28;20040;-94
2022/01/29 05:12:59;;;;;;;33.58;13.10;;;;;;;1.42;74.15;100030.53;5120223;28;20393;-95
2022/01/29 05:28:27;;;;;;;36.00;13.27;;;;;;;0.86;77.95;100024.44;5056874;28;20389;-95
2022/01/29 05:30:53;;;;;;;33.78;12.52;;;;;;;0.73;78.99;100034.50;5057720;28;20052;-93
2022/01/29 05:33:24;;;;;;;34.35;14.05;;;;;;;0.69;79.06;100036.97;5056455;28;20034;-94
2022/01/29 05:35:50;;;;;;;37.72;13.65;;;;;;;0.69;79.09;100050.06;5058817;28;20098;-94
2022/01/29 05:38:16;;;;;;;34.63;12.80;;;;;;;0.63;77.88;100042.00;5059453;28;20048;-96
2022/01/29 05:40:43;;;;;;;33.38;13.40;;;;;;;0.55;78.25;100055.72;5061865;28;20076;-96
2022/01/29 05:43:09;;;;;;;30.17;13.43;;;;;;;0.41;78.91;100070.06;5060282;28;20090;-95
2022/01/29 05:45:41;;;;;;;31.98;13.02;;;;;;;0.33;78.68;100048.88;5061514;28;20485;-92
2022/01/29 05:48:07;;;;;;;30.33;13.13;;;;;;;0.20;79.22;100070.22;5057997;28;20041;-93
2022/01/29 05:50:35;;;;;;;36.58;12.77;;;;;;;0.00;80.41;100059.06;5059198;28;20053;-95
2022/01/29 05:53:01;;;;;;;30.63;13.02;;;;;;;-0.01;81.05;100065.09;5060427;28;20068;-95
2022/01/29 05:55:27;;;;;;;31.58;13.23;;;;;;;0.23;81.49;100113.91;5056972;28;20053;-94
2022/01/29 05:57:54;;;;;;;36.03;13.70;;;;;;;-0.05;81.79;100071.06;5062642;28;20041;-94
2022/01/29 06:00:19;;;;;;;31.25;12.57;;;;;;;0.16;81.72;100100.59;5057723;28;20041;-94
2022/01/29 06:02:57;;;;;;;31.67;12.27;;;;;;;0.06;82.68;100088.00;5056549;28;20052;-95
2022/01/29 06:05:23;;;;;;;35.53;13.45;;;;;;;0.18;84.24;100116.34;5057174;28;20144;-96
2022/01/29 06:07:48;;;;;;;35.95;12.70;;;;;;;0.40;84.09;100097.94;5057635;28;20065;-95
2022/01/29 06:10:18;;;;;;;43.28;14.85;;;;;;;0.40;84.51;100100.56;5057507;28;20570;-95
2022/01/29 06:12:44;;;;;;;44.92;15.70;;;;;;;0.36;84.16;100077.75;5057495;28;20045;-96
2022/01/29 06:15:11;;;;;;;42.60;15.73;;;;;;;0.82;85.52;100075.78;5056940;28;20045;-95
2022/01/29 06:17:38;;;;;;;51.72;18.52;;;;;;;1.06;85.71;100077.44;5058598;28;20061;-94
2022/01/29 06:20:07;;;;;;;43.65;16.08;;;;;;;1.55;82.86;100081.59;5055971;28;20079;-96
2022/01/29 06:22:33;;;;;;;41.60;15.98;;;;;;;1.81;82.36;100083.25;5055128;28;20395;-95
2022/01/29 06:24:58;;;;;;;44.65;16.83;;;;;;;2.08;80.34;100081.38;5057274;28;20427;-95
2022/01/29 06:27:24;;;;;;;40.35;16.35;;;;;;;2.50;78.51;100105.28;5055000;28;20045;-95
2022/01/29 06:29:51;;;;;;;39.95;15.48;;;;;;;2.33;78.02;100065.44;5057495;28;20049;-94
2022/01/29 06:32:21;;;;;;;44.53;15.27;;;;;;;2.41;77.17;100052.53;5058814;28;20068;-94
2022/01/29 06:34:48;;;;;;;42.97;15.27;;;;;;;2.44;76.52;100074.50;5058535;28;20053;-95
2022/01/29 06:37:20;;;;;;;37.97;14.25;;;;;;;2.30;77.58;100086.38;5062817;28;20065;-95
2022/01/29 06:39:46;;;;;;;37.40;13.60;;;;;;;2.29;78.06;100104.69;5044023;28;20060;-95
2022/01/29 06:42:12;;;;;;;46.70;14.70;;;;;;;2.07;78.57;100085.72;5045930;28;20045;-94
2022/01/29 06:44:38;;;;;;;33.17;13.02;;;;;;;1.91;78.14;100060.81;5045377;28;20026;-93
2022/01/29 06:47:04;;;;;;;33.05;12.85;;;;;;;2.11;77.20;100084.97;5042175;28;20155;-93
2022/01/29 06:49:31;;;;;;;29.58;11.68;;;;;;;2.34;75.32;100072.50;5044551;28;20033;-93
2022/01/29 06:51:57;;;;;;;36.10;14.07;;;;;;;2.30;75.40;100069.72;5042045;28;20464;-93
2022/01/29 06:54:24;;;;;;;33.92;12.85;;;;;;;2.24;75.40;100060.84;5042581;28;20183;-95
2022/01/29 06:56:50;;;;;;;31.60;12.80;;;;;;;2.35;75.91;100105.75;5041893;28;20045;-92
2022/01/29 06:59:16;;;;;;;33.67;13.38;;;;;;;2.42;76.12;100123.44;5045383;28;20057;-94
2022/01/29 07:01:42;;;;;;;32.75;12.95;;;;;;;2.09;77.05;100080.53;5043918;28;20442;-93
2022/01/29 07:04:07;;;;;;;30.40;11.93;;;;;;;2.05;76.43;100072.56;5043341;28;20041;-95
2022/01/29 07:06:33;;;;;;;30.15;12.23;;;;;;;2.40;74.62;100098.88;5043843;28;20049;-93
2022/01/29 07:08:59;;;;;;;32.10;13.18;;;;;;;2.29;74.26;100073.22;5043823;28;20187;-93
2022/01/29 07:11:27;;;;;;;29.45;11.52;;;;;;;2.29;74.62;100088.97;5044207;28;20052;-93
2022/01/29 07:14:01;;;;;;;31.02;11.07;;;;;;;2.39;73.28;100076.13;5043736;28;20426;-93
2022/01/29 07:16:27;;;;;;;31.15;11.48;;;;;;;2.68;71.84;100083.88;5045674;28;20049;-94
2022/01/29 07:18:53;;;;;;;26.50;11.20;;;;;;;2.95;72.09;100116.94;5046148;28;20042;-94
2022/01/29 07:21:19;;;;;;;31.15;11.93;;;;;;;2.92;72.47;100104.63;5047724;28;20407;-94
2022/01/29 07:23:45;;;;;;;30.60;12.07;;;;;;;2.88;72.04;100092.25;5047161;28;20042;-94
2022/01/29 07:26:11;;;;;;;23.90;10.52;;;;;;;2.95;71.00;100109.06;5048863;28;20053;-95
2022/01/29 07:28:39;;;;;;;34.38;13.05;;;;;;;2.98;70.76;100096.88;5048221;28;20053;-94
2022/01/29 07:31:06;;;;;;;28.48;11.75;;;;;;;3.21;69.39;100123.75;5048122;28;20128;-95
2022/01/29 07:33:32;;;;;;;29.38;11.80;;;;;;;3.17;69.39;100107.88;5047468;28;20049;-96
2022/01/29 07:35:58;;;;;;;28.63;14.52;;;;;;;3.11;69.52;100116.47;5044829;28;20069;-95
2022/01/29 07:38:25;;;;;;;39.83;15.63;;;;;;;2.87;70.21;100116.75;5046650;28;20129;-95
2022/01/29 07:40:51;;;;;;;44.58;19.55;;;;;;;2.73;71.27;100145.28;5045960;28;20045;-95
2022/01/29 07:43:17;;;;;;;37.55;18.85;;;;;;;2.40;72.63;100133.00;5044591;28;20053;-94
2022/01/29 07:45:45;;;;;;;36.80;17.38;;;;;;;2.17;73.32;100121.91;5042728;28;20060;-95
2022/01/29 07:48:11;;;;;;;38.07;16.60;;;;;;;2.31;74.04;100177.38;5042636;28;20045;-94
2022/01/29 07:50:37;;;;;;;31.33;15.48;;;;;;;1.99;73.23;100111.72;5043081;28;20109;-94
2022/01/29 07:53:04;;;;;;;34.60;15.85;;;;;;;1.89;73.79;100124.53;5044401;28;20073;-96
2022/01/29 07:55:32;;;;;;;35.08;16.30;;;;;;;2.00;75.09;100149.38;5045225;28;20067;-94
2022/01/29 07:57:59;;;;;;;31.85;15.68;;;;;;;2.07;75.78;100159.19;5047438;28;20076;-94
2022/01/29 08:00:25;;;;;;;38.13;18.17;;;;;;;1.90;75.94;100121.09;5048090;28;20136;-93
2022/01/29 08:02:53;;;;;;;39.75;18.65;;;;;;;2.01;75.75;100131.03;5045768;28;20045;-96
2022/01/29 08:05:20;;;;;;;38.53;17.70;;;;;;;2.08;75.39;100132.09;5045224;28;20099;-95
2022/01/29 08:07:47;;;;;;;35.17;16.57;;;;;;;2.46;75.68;100166.44;5045863;28;20077;-95
2022/01/29 08:10:14;;;;;;;46.28;18.63;;;;;;;2.39;74.62;100131.25;5045995;28;20056;-94
2022/01/29 08:12:39;;;;;;;41.28;17.88;;;;;;;2.53;74.19;100141.25;5045331;28;20037;-94
2022/01/29 08:15:07;;;;;;;41.60;19.20;;;;;;;2.80;73.93;100146.34;5043538;28;20073;-94
2022/01/29 08:17:33;;;;;;;37.85;18.27;;;;;;;2.89;73.38;100141.34;5043359;28;20088;-95
2022/01/29 08:20:00;;;;;;;43.83;19.25;;;;;;;3.11;72.25;100160.28;5040916;28;20050;-95
2022/01/29 08:22:26;;;;;;;39.17;17.20;;;;;;;3.11;71.12;100132.25;5041930;28;20041;-95
2022/01/29 08:24:53;;;;;;;41.97;18.42;;;;;;;3.11;71.85;100141.88;5041027;28;20048;-95
2022/01/29 08:27:19;;;;;;;38.13;18.13;;;;;;;3.46;71.96;100177.78;5039838;28;20180;-94
2022/01/29 08:29:45;;;;;;;36.47;18.00;;;;;;;3.37;70.30;100147.78;5039513;28;20046;-94
2022/01/29 08:32:11;;;;;;;36.30;16.38;;;;;;;3.51;69.72;100143.72;5040513;28;20046;-95
2022/01/29 08:34:39;;;;;;;31.45;16.05;;;;;;;3.56;69.45;100146.47;5043302;28;20140;-95
2022/01/29 08:37:06;;;;;;;32.10;15.20;;;;;;;3.80;69.01;100178.59;5039507;28;20035;-95
2022/01/29 08:39:32;;;;;;;33.58;15.25;;;;;;;3.55;68.85;100156.09;5040908;28;20037;-95
2022/01/29 08:41:59;;;;;;;33.40;15.07;;;;;;;3.48;68.91;100144.53;5042184;28;20041;-94
2022/01/29 08:44:25;;;;;;;35.80;15.48;;;;;;;3.61;68.84;100163.25;5040463;28;20049;-95
2022/01/29 08:46:51;;;;;;;31.30;15.27;;;;;;;3.83;67.96;100172.50;5039999;28;20041;-94
2022/01/29 08:49:17;;;;;;;31.85;15.02;;;;;;;3.77;68.44;100154.81;5040501;28;20041;-96
2022/01/29 08:51:43;;;;;;;32.33;14.60;;;;;;;4.05;68.16;100173.88;5041678;28;20045;-94
2022/01/29 08:54:16;;;;;;;33.95;15.38;;;;;;;4.04;67.46;100154.56;5041511;28;20048;-95
2022/01/29 08:56:42;;;;;;;43.72;15.73;;;;;;;4.49;68.10;100209.06;5039844;28;20041;-94
2022/01/29 08:59:09;;;;;;;29.52;14.75;;;;;;;4.37;67.39;100161.38;5037645;28;20049;-93
2022/01/29 09:01:35;;;;;;;34.67;15.57;;;;;;;4.47;65.96;100160.72;5039556;28;20050;-93
2022/01/29 09:04:01;;;;;;;31.52;14.32;;;;;;;4.67;66.25;100153.19;5040525;28;20135;-94
2022/01/29 09:06:28;;;;;;;36.03;16.23;;;;;;;4.79;65.20;100156.91;5039145;28;20053;-93
2022/01/29 09:08:54;;;;;;;31.63;16.20;;;;;;;4.90;64.82;100155.34;5038881;28;20061;-94
2022/01/29 09:11:22;;;;;;;34.90;16.10;;;;;;;5.03;63.99;100153.81;5039272;28;20052;-93
2022/01/29 09:13:48;;;;;;;29.65;15.00;;;;;;;5.20;63.19;100156.75;5039852;28;20491;-95
2022/01/29 09:16:13;;;;;;;30.52;14.98;;;;;;;5.41;62.24;100180.84;5039396;28;20049;-95
2022/01/29 09:18:45;;;;;;;36.33;16.42;;;;;;;5.50;61.50;100170.44;5037741;28;20089;-95
2022/01/29 09:21:26;;;;;;;31.60;15.75;;;;;;;5.54;61.69;100164.34;5039028;28;20113;-95
2022/01/29 09:24:06;;;;;;;34.70;16.65;;;;;;;5.85;61.66;100192.97;5039871;28;20036;-95
2022/01/29 09:26:40;;;;;;;35.30;15.98;;;;;;;5.92;61.66;100182.53;5040583;28;20044;-94
2022/01/29 09:29:09;;;;;;;33.67;16.67;;;;;;;5.90;60.92;100160.50;5042733;28;20053;-95
2022/01/29 09:31:35;;;;;;;34.90;16.92;;;;;;;6.10;61.25;100175.78;5039807;28;20049;-94
2022/01/29 09:34:03;;;;;;;29.25;15.32;;;;;;;6.13;61.16;100159.94;5040519;28;20044;-95
2022/01/29 09:36:29;;;;;;;29.67;17.07;;;;;;;6.24;61.72;100168.00;5042461;28;20067;-94
2022/01/29 09:38:55;;;;;;;34.63;17.23;;;;;;;6.27;60.87;100158.38;5042104;28;20057;-95
2022/01/29 09:41:24;;;;;;;31.92;16.58;;;;;;;6.41;60.62;100162.94;5042079;28;20041;-95
2022/01/29 09:43:53;;;;;;;32.05;16.65;;;;;;;6.46;60.72;100154.22;5042452;28;20418;-95
2022/01/29 09:46:19;;;;;;;31.17;15.55;;;;;;;6.59;59.84;100165.78;5042099;28;20050;-94
2022/01/29 09:48:45;;;;;;;33.17;17.15;;;;;;;6.63;59.99;100164.09;5047615;28;20060;-95
2022/01/29 09:51:13;;;;;;;37.17;17.77;;;;;;;6.89;59.41;100188.16;5060230;28;20113;-94
2022/01/29 09:53:39;;;;;;;39.50;19.70;;;;;;;6.70;59.21;100174.75;5060712;28;20045;-95
2022/01/29 09:56:12;;;;;;;39.45;18.20;;;;;;;6.97;59.06;100200.59;5061723;28;20128;-94
2022/01/29 09:58:38;;;;;;;39.35;19.65;;;;;;;7.08;59.45;100191.88;5062533;28;20162;-92
2022/01/29 10:01:07;;;;;;;37.10;18.45;;;;;;;7.03;58.64;100168.03;5067589;28;20045;-94
2022/01/29 10:03:34;;;;;;;37.67;17.25;;;;;;;7.23;57.94;100175.28;5061970;28;20073;-93
2022/01/29 10:06:01;;;;;;;38.40;18.27;;;;;;;7.56;57.61;100199.38;5062331;28;20041;-94
2022/01/29 10:08:28;;;;;;;36.70;15.98;;;;;;;7.52;56.49;100159.63;5062763;28;20052;-94
2022/01/29 10:10:57;;;;;;;30.90;14.55;;;;;;;7.61;56.29;100157.94;5062172;28;20045;-94
2022/01/29 10:13:29;;;;;;;28.92;15.05;;;;;;;7.93;55.23;100191.69;5049869;28;20048;-94
2022/01/29 10:16:12;;;;;;;29.60;15.25;;;;;;;7.85;54.61;100153.69;5045990;28;20046;-95
2022/01/29 10:18:45;;;;;;;28.63;14.18;;;;;;;7.96;54.03;100157.28;5045598;28;20495;-93
2022/01/29 10:21:14;;;;;;;24.73;13.07;;;;;;;8.16;51.49;100170.63;5043587;28;20052;-95
2022/01/29 10:23:41;;;;;;;26.75;12.40;;;;;;;8.27;51.24;100153.91;5043232;28;20052;-94
2022/01/29 10:26:09;;;;;;;6.03;3.17;;;;;;;8.47;40.12;100172.56;5043211;28;20046;-95
2022/01/29 10:28:36;;;;;;;5.75;3.10;;;;;;;8.70;38.77;100196.53;5042459;28;20041;-96
2022/01/29 10:31:04;;;;;;;6.30;2.90;;;;;;;8.56;38.50;100135.47;5042784;28;20056;-95
2022/01/29 10:33:34;;;;;;;5.90;2.40;;;;;;;8.81;36.45;100155.88;5040077;28;20594;-95
2022/01/29 10:36:02;;;;;;;5.30;2.53;;;;;;;8.94;35.83;100153.28;5040958;28;20042;-93
2022/01/29 10:38:30;;;;;;;5.55;2.88;;;;;;;9.02;36.93;100156.78;5041809;28;20069;-95
2022/01/29 10:41:18;;;;;;;6.10;2.65;;;;;;;8.88;36.67;100130.25;5040123;28;20519;-94
2022/01/29 10:43:59;;;;;;;5.17;2.50;;;;;;;9.13;36.05;100139.16;5040896;28;20041;-93
2022/01/29 10:46:26;;;;;;;4.63;2.70;;;;;;;9.08;36.04;100127.63;5039936;28;20614;-94
2022/01/29 10:48:54;;;;;;;7.30;2.70;;;;;;;9.10;35.89;100117.91;5041378;28;20068;-94
2022/01/29 10:51:20;;;;;;;6.35;2.55;;;;;;;9.05;34.20;100125.84;5039859;28;20404;-94
2022/01/29 10:53:46;;;;;;;4.78;2.25;;;;;;;9.10;34.25;100138.25;5039349;28;20049;-93
2022/01/29 10:56:12;;;;;;;4.72;2.28;;;;;;;9.19;33.85;100138.25;5043677;28;20051;-95
2022/01/29 10:58:43;;;;;;;5.13;2.50;;;;;;;9.11;34.93;100113.47;5041973;28;20068;-94
2022/01/29 11:01:17;;;;;;;4.82;2.33;;;;;;;9.29;32.84;100136.50;5041361;28;20042;-95
2022/01/29 11:03:45;;;;;;;5.95;2.50;;;;;;;9.22;31.81;100132.97;5043535;28;20049;-94
2022/01/29 11:06:19;;;;;;;7.05;2.80;;;;;;;9.01;31.97;100105.50;5042208;28;20500;-94
2022/01/29 11:08:45;;;;;;;4.10;2.40;;;;;;;9.12;30.43;100118.78;5039532;28;20049;-95
2022/01/29 11:11:13;;;;;;;3.95;2.10;;;;;;;9.11;31.93;100129.38;5040702;28;20045;-95
2022/01/29 11:13:40;;;;;;;7.25;2.60;;;;;;;8.83;31.29;100101.06;5040704;28;20041;-94
2022/01/29 11:16:06;;;;;;;7.20;2.60;;;;;;;8.94;31.38;100122.31;5040664;28;20045;-93
2022/01/29 11:18:33;;;;;;;9.15;3.80;;;;;;;8.97;30.99;100117.00;5040305;28;20050;-92
2022/01/29 11:21:00;;;;;;;5.65;2.40;;;;;;;9.09;30.32;100123.22;5041594;28;20120;-94
2022/01/29 11:23:28;;;;;;;8.68;3.58;;;;;;;8.90;31.43;100085.19;5042563;28;20101;-95
2022/01/29 11:25:55;;;;;;;6.50;2.67;;;;;;;9.22;33.30;100125.88;5041941;28;20056;-93
2022/01/29 11:28:27;;;;;;;6.03;2.70;;;;;;;9.15;31.35;100084.31;5040877;28;20052;-93
2022/01/29 11:31:19;;;;;;;4.63;2.70;;;;;;;9.53;31.64;100109.91;5040211;28;20500;-93
2022/01/29 11:34:21;;;;;;;5.07;1.90;;;;;;;9.62;29.61;100103.72;5041407;28;20077;-94